createdAt,value
2022-10-06T00:01:32.711Z,0.85
2022-10-06T00:04:01.392Z,0.70
2022-10-06T00:06:31.086Z,0.70
2022-10-06T00:08:59.412Z,2.35
2022-10-06T00:11:28.201Z,4.28
2022-10-06T00:13:56.380Z,2.05
2022-10-06T00:16:24.639Z,3.88
2022-10-06T00:18:52.845Z,0.95
2022-10-06T00:21:21.151Z,0.57
2022-10-06T00:23:50.713Z,0.88
2022-10-06T00:26:18.974Z,2.10
2022-10-06T00:28:48.568Z,0.95
2022-10-06T00:31:19.587Z,2.42
2022-10-06T00:33:49.915Z,4.33
2022-10-06T00:36:18.183Z,3.08
2022-10-06T00:38:46.490Z,2.35
2022-10-06T00:41:18.978Z,1.23
2022-10-06T00:43:52.057Z,1.67
2022-10-06T00:46:28.530Z,1.00
2022-10-06T00:49:02.020Z,3.30
2022-10-06T00:51:32.365Z,0.60
2022-10-06T00:54:01.741Z,1.90
2022-10-06T00:56:32.276Z,3.63
2022-10-06T00:59:00.574Z,5.50
2022-10-06T01:01:31.842Z,0.88
2022-10-06T01:04:07.373Z,2.15
2022-10-06T01:06:47.320Z,2.55
2022-10-06T01:09:18.772Z,0.70
2022-10-06T01:11:51.297Z,1.63
2022-10-06T01:14:21.100Z,3.03
2022-10-06T01:16:57.019Z,1.50
2022-10-06T01:19:43.731Z,2.85
2022-10-06T01:22:15.600Z,3.25
2022-10-06T01:24:50.617Z,4.05
2022-10-06T01:27:19.755Z,2.30
2022-10-06T01:29:51.328Z,4.35
2022-10-06T01:32:19.821Z,2.15
2022-10-06T01:34:48.099Z,2.80
2022-10-06T01:37:16.962Z,2.88
2022-10-06T01:39:46.543Z,2.47
2022-10-06T01:42:14.765Z,2.63
2022-10-06T01:44:42.930Z,6.07
2022-10-06T01:47:11.157Z,1.63
2022-10-06T01:49:39.427Z,2.42
2022-10-06T01:52:08.187Z,3.60
2022-10-06T01:54:36.903Z,0.95
2022-10-06T01:57:08.656Z,4.53
2022-10-06T01:59:36.914Z,1.83
2022-10-06T02:02:05.622Z,3.72
2022-10-06T02:04:33.916Z,1.08
2022-10-06T02:07:02.168Z,5.65
2022-10-06T02:09:30.654Z,10.27
2022-10-06T02:11:59.641Z,2.63
2022-10-06T02:14:32.641Z,2.25
2022-10-06T02:17:00.910Z,7.13
2022-10-06T02:19:29.135Z,5.68
2022-10-06T02:21:59.715Z,6.70
2022-10-06T02:24:28.206Z,4.53
2022-10-06T02:26:56.407Z,2.05
2022-10-06T02:29:24.901Z,4.38
2022-10-06T02:31:55.708Z,2.70
2022-10-06T02:34:24.213Z,4.72
2022-10-06T02:36:54.030Z,4.95
2022-10-06T02:39:22.476Z,3.63
2022-10-06T02:41:50.791Z,4.28
2022-10-06T02:44:21.446Z,3.67
2022-10-06T02:46:50.141Z,3.78
2022-10-06T02:49:20.568Z,4.63
2022-10-06T02:51:49.429Z,8.95
2022-10-06T02:54:17.686Z,3.13
2022-10-06T02:56:46.528Z,6.45
2022-10-06T02:59:15.423Z,5.65
2022-10-06T03:01:44.511Z,8.68
2022-10-06T03:04:17.341Z,5.93
2022-10-06T03:06:46.925Z,7.05
2022-10-06T03:09:20.781Z,7.25
2022-10-06T03:11:49.321Z,9.00
2022-10-06T03:14:23.527Z,5.88
2022-10-06T03:16:52.598Z,6.07
2022-10-06T03:19:24.999Z,9.20
2022-10-06T03:21:55.362Z,10.02
2022-10-06T03:24:29.737Z,3.85
2022-10-06T03:27:00.336Z,13.20
2022-10-06T03:29:29.133Z,8.95
2022-10-06T03:31:58.610Z,5.10
2022-10-06T03:34:27.368Z,6.13
2022-10-06T03:36:59.059Z,7.43
2022-10-06T03:39:28.908Z,11.45
2022-10-06T03:41:57.134Z,7.55
2022-10-06T03:44:25.366Z,12.65
2022-10-06T03:46:53.823Z,10.52
2022-10-06T03:49:22.090Z,9.88
2022-10-06T03:51:50.371Z,6.20
2022-10-06T03:54:26.105Z,12.05
2022-10-06T03:56:55.464Z,7.40
2022-10-06T03:59:23.697Z,4.57
2022-10-06T04:01:56.054Z,6.47
2022-10-06T04:04:37.972Z,10.32
2022-10-06T04:07:09.695Z,12.60
2022-10-06T04:09:39.290Z,10.40
2022-10-06T04:12:07.919Z,12.23
2022-10-06T04:14:38.719Z,10.85
2022-10-06T04:17:08.553Z,10.75
2022-10-06T04:19:39.178Z,14.07
2022-10-06T04:22:07.412Z,9.13
2022-10-06T04:24:37.932Z,6.82
2022-10-06T04:27:23.814Z,13.05
2022-10-06T04:30:06.179Z,14.43
2022-10-06T04:32:35.274Z,10.43
2022-10-06T04:35:03.798Z,17.17
2022-10-06T04:37:32.612Z,7.50
2022-10-06T04:40:02.956Z,15.00
2022-10-06T04:42:35.218Z,12.52
2022-10-06T04:45:08.285Z,7.13
2022-10-06T04:47:38.720Z,8.30
2022-10-06T04:50:07.847Z,13.25
2022-10-06T04:52:36.395Z,13.45
2022-10-06T04:55:07.499Z,18.85
2022-10-06T04:57:36.525Z,12.73
2022-10-06T05:00:25.154Z,10.73
2022-10-06T05:02:55.446Z,17.25
2022-10-06T05:05:24.006Z,14.93
2022-10-06T05:07:53.886Z,13.60
2022-10-06T05:10:23.483Z,9.73
2022-10-06T05:12:52.840Z,8.15
2022-10-06T05:15:21.646Z,11.85
2022-10-06T05:17:50.205Z,6.82
2022-10-06T05:20:22.764Z,15.88
2022-10-06T05:22:51.588Z,11.88
2022-10-06T05:25:20.566Z,16.42
2022-10-06T05:27:50.520Z,13.48
2022-10-06T05:30:18.888Z,10.70
2022-10-06T05:32:50.360Z,15.90
2022-10-06T05:35:19.394Z,9.55
2022-10-06T05:37:47.788Z,14.68
2022-10-06T05:40:16.439Z,11.85
2022-10-06T05:42:44.824Z,8.43
2022-10-06T05:45:14.657Z,12.82
2022-10-06T05:47:43.269Z,7.75
2022-10-06T05:50:11.526Z,15.65
2022-10-06T05:52:40.471Z,13.85
2022-10-06T05:55:10.220Z,13.50
2022-10-06T05:57:38.827Z,8.23
2022-10-06T06:00:09.182Z,5.00
2022-10-06T06:02:42.709Z,9.02
2022-10-06T06:05:12.825Z,6.13
2022-10-06T06:07:41.726Z,13.95
2022-10-06T06:10:10.520Z,5.00
2022-10-06T06:12:39.137Z,5.40
2022-10-06T06:15:43.319Z,15.68
2022-10-06T06:18:13.980Z,8.48
2022-10-06T06:20:42.665Z,9.20
2022-10-06T06:23:10.938Z,9.27
2022-10-06T06:25:39.210Z,12.65
2022-10-06T06:28:08.808Z,13.30
2022-10-06T06:30:38.543Z,10.15
2022-10-06T06:33:06.781Z,10.38
2022-10-06T06:35:38.511Z,17.17
2022-10-06T06:38:11.767Z,15.38
2022-10-06T06:40:42.153Z,12.07
2022-10-06T06:43:13.521Z,8.00
2022-10-06T06:46:04.296Z,13.88
2022-10-06T06:48:49.915Z,11.27
2022-10-06T06:51:23.077Z,8.13
2022-10-06T06:53:52.534Z,7.25
2022-10-06T06:56:22.367Z,10.02
2022-10-06T06:58:51.580Z,13.32
2022-10-06T07:01:22.593Z,7.60
2022-10-06T07:03:58.815Z,7.65
2022-10-06T07:06:33.153Z,13.00
2022-10-06T07:09:04.053Z,10.65
2022-10-06T07:11:35.247Z,6.65
2022-10-06T07:14:08.877Z,9.93
2022-10-06T07:16:54.916Z,22.98
2022-10-06T07:19:52.737Z,11.20
2022-10-06T07:22:43.986Z,9.75
2022-10-06T07:25:26.042Z,12.25
2022-10-06T07:28:03.489Z,10.55
2022-10-06T07:30:41.064Z,8.82
2022-10-06T07:33:15.827Z,11.65
2022-10-06T07:35:46.169Z,5.15
2022-10-06T07:38:18.679Z,12.00
2022-10-06T07:41:17.927Z,7.75
2022-10-06T07:43:46.865Z,3.65
2022-10-06T07:46:16.382Z,6.50
2022-10-06T07:48:54.752Z,9.88
2022-10-06T07:51:27.197Z,14.27
2022-10-06T07:53:58.627Z,8.65
2022-10-06T07:56:31.950Z,9.75
2022-10-06T07:59:01.211Z,10.35
2022-10-06T08:01:30.331Z,11.02
2022-10-06T08:03:58.716Z,4.85
2022-10-06T08:06:27.064Z,9.00
2022-10-06T08:08:56.679Z,8.63
2022-10-06T08:11:26.325Z,10.15
2022-10-06T08:13:55.035Z,17.33
2022-10-06T08:16:25.865Z,7.15
2022-10-06T08:18:55.927Z,3.35
2022-10-06T08:21:27.889Z,9.52
2022-10-06T08:26:29.292Z,10.38
2022-10-06T08:29:03.442Z,5.82
2022-10-06T08:31:33.463Z,8.82
2022-10-06T08:34:02.112Z,5.80
2022-10-06T08:36:32.264Z,6.80
2022-10-06T08:39:01.369Z,10.52
2022-10-06T08:41:41.574Z,12.30
2022-10-06T08:44:24.476Z,9.23
2022-10-06T08:47:00.509Z,12.52
2022-10-06T08:49:40.933Z,4.88
2022-10-06T08:52:23.914Z,7.78
2022-10-06T08:55:04.654Z,5.25
2022-10-06T08:57:43.692Z,6.78
2022-10-06T09:00:18.155Z,8.98
2022-10-06T09:02:51.277Z,9.63
2022-10-06T09:05:25.468Z,7.43
2022-10-06T09:08:16.750Z,10.75
2022-10-06T09:10:54.876Z,11.38
2022-10-06T09:13:32.163Z,9.35
2022-10-06T09:16:07.571Z,6.75
2022-10-06T09:19:11.000Z,9.35
2022-10-06T09:21:39.739Z,10.98
2022-10-06T09:24:13.952Z,8.45
2022-10-06T09:26:45.537Z,5.57
2022-10-06T09:29:15.739Z,13.95
2022-10-06T09:31:51.139Z,6.18
2022-10-06T09:34:29.393Z,5.97
2022-10-06T09:37:03.785Z,7.85
2022-10-06T09:39:36.804Z,7.68
2022-10-06T09:42:13.376Z,7.60
2022-10-06T09:45:00.836Z,8.18
2022-10-06T09:47:45.108Z,4.32
2022-10-06T09:50:24.070Z,8.50
2022-10-06T09:53:16.724Z,6.75
2022-10-06T09:55:56.540Z,9.63
2022-10-06T09:58:31.381Z,11.52
2022-10-06T10:01:03.942Z,11.43
2022-10-06T10:04:02.356Z,6.93
2022-10-06T10:06:37.311Z,6.28
2022-10-06T10:09:27.086Z,3.72
2022-10-06T10:12:31.186Z,6.97
2022-10-06T10:15:06.151Z,4.97
2022-10-06T10:17:43.941Z,8.80
2022-10-06T10:20:34.283Z,6.95
2022-10-06T10:23:19.161Z,6.60
2022-10-06T10:26:07.958Z,7.55
2022-10-06T10:29:05.378Z,8.57
2022-10-06T10:31:49.040Z,9.75
2022-10-06T10:34:47.686Z,5.18
2022-10-06T10:37:21.878Z,5.30
2022-10-06T10:39:57.081Z,7.57
2022-10-06T10:42:32.161Z,5.63
2022-10-06T10:45:04.313Z,7.28
2022-10-06T10:47:38.600Z,5.45
2022-10-06T10:50:22.279Z,8.40
2022-10-06T10:52:55.359Z,8.38
2022-10-06T10:55:31.824Z,4.28
2022-10-06T10:58:09.063Z,8.13
2022-10-06T11:00:42.840Z,5.78
2022-10-06T11:03:11.852Z,7.38
2022-10-06T11:06:04.801Z,6.20
2022-10-06T11:08:44.411Z,5.88
2022-10-06T11:11:21.562Z,5.28
2022-10-06T11:13:54.654Z,7.07
2022-10-06T11:16:42.813Z,8.95
2022-10-06T11:19:22.859Z,9.32
2022-10-06T11:22:02.494Z,4.93
2022-10-06T11:24:40.787Z,6.15
2022-10-06T11:27:22.642Z,5.10
2022-10-06T11:30:03.860Z,4.15
2022-10-06T11:32:46.498Z,3.47
2022-10-06T11:35:21.751Z,5.65
2022-10-06T11:38:00.890Z,4.72
2022-10-06T11:40:49.896Z,7.93
2022-10-06T11:43:32.160Z,7.20
2022-10-06T11:46:08.922Z,6.90
2022-10-06T11:48:37.587Z,4.03
2022-10-06T11:51:30.367Z,10.70
2022-10-06T11:54:00.506Z,7.75
2022-10-06T11:56:46.816Z,4.78
2022-10-06T11:59:31.724Z,8.10
2022-10-06T12:02:02.373Z,5.15
2022-10-06T12:04:31.341Z,7.35
2022-10-06T12:07:04.531Z,7.15
2022-10-06T12:09:52.302Z,4.47
2022-10-06T12:13:21.297Z,7.93
2022-10-06T12:19:19.471Z,5.22
2022-10-06T12:22:01.224Z,4.95
2022-10-06T12:24:41.513Z,7.20
2022-10-06T12:27:50.273Z,7.65
2022-10-06T12:30:24.397Z,3.97
2022-10-06T12:32:58.199Z,3.60
2022-10-06T12:35:34.165Z,5.80
2022-10-06T12:38:06.172Z,7.43
2022-10-06T12:40:55.276Z,6.03
2022-10-06T12:43:59.234Z,6.93
2022-10-06T12:46:46.673Z,6.07
2022-10-06T12:49:44.280Z,6.75
2022-10-06T12:52:47.357Z,4.65
2022-10-06T12:55:36.413Z,3.78
2022-10-06T12:58:05.111Z,3.15
2022-10-06T13:00:39.672Z,8.48
2022-10-06T13:03:16.433Z,6.05
2022-10-06T13:05:52.001Z,5.85
2022-10-06T13:08:25.296Z,2.90
2022-10-06T13:11:13.270Z,9.07
2022-10-06T13:13:49.111Z,7.18
2022-10-06T13:16:26.577Z,2.63
2022-10-06T13:18:58.007Z,5.63
2022-10-06T13:21:27.574Z,4.20
2022-10-06T13:23:56.171Z,4.85
2022-10-06T13:26:29.411Z,5.93
2022-10-06T13:28:59.091Z,6.57
2022-10-06T13:31:31.586Z,7.28
2022-10-06T13:34:02.770Z,7.45
2022-10-06T13:36:34.733Z,12.30
2022-10-06T13:39:05.609Z,6.78
2022-10-06T13:41:38.020Z,3.23
2022-10-06T13:44:29.801Z,5.18
2022-10-06T13:47:02.492Z,5.97
2022-10-06T13:49:35.809Z,5.80
2022-10-06T13:52:16.218Z,4.53
2022-10-06T13:54:51.611Z,7.80
2022-10-06T13:57:43.142Z,6.00
2022-10-06T14:00:21.795Z,7.00
2022-10-06T14:02:55.259Z,5.13
2022-10-06T14:05:34.725Z,4.05
2022-10-06T14:08:15.371Z,3.55
2022-10-06T14:10:49.987Z,6.72
2022-10-06T14:13:21.752Z,5.38
2022-10-06T14:15:52.993Z,27.27
2022-10-06T14:18:26.538Z,4.45
2022-10-06T14:20:56.487Z,4.82
2022-10-06T14:23:43.682Z,2.83
2022-10-06T14:26:14.351Z,7.25
2022-10-06T14:28:47.826Z,2.23
2022-10-06T14:31:16.985Z,12.68
2022-10-06T14:33:48.609Z,8.10
2022-10-06T14:36:20.418Z,5.32
2022-10-06T14:38:51.086Z,6.60
2022-10-06T14:41:24.590Z,9.80
2022-10-06T14:43:56.275Z,5.30
2022-10-06T14:48:55.792Z,6.78
2022-10-06T14:51:26.097Z,6.80
2022-10-06T14:53:56.492Z,5.00
2022-10-06T14:56:28.852Z,4.47
2022-10-06T14:58:57.841Z,7.05
2022-10-06T15:01:28.209Z,4.30
2022-10-06T15:04:00.497Z,6.45
2022-10-06T15:06:47.428Z,3.72
2022-10-06T15:09:15.919Z,6.75
2022-10-06T15:11:44.312Z,5.57
2022-10-06T15:14:13.114Z,7.70
2022-10-06T15:16:43.732Z,5.35
2022-10-06T15:19:13.864Z,5.80
2022-10-06T15:21:45.297Z,5.35
2022-10-06T15:24:16.632Z,6.88
2022-10-06T15:27:03.320Z,1.98
2022-10-06T15:29:32.160Z,6.72
2022-10-06T15:32:00.415Z,7.13
2022-10-06T15:34:33.482Z,4.65
2022-10-06T15:37:02.790Z,4.78
2022-10-06T15:39:33.193Z,4.68
2022-10-06T15:42:01.967Z,3.45
2022-10-06T15:44:34.591Z,3.63
2022-10-06T15:47:05.118Z,5.50
2022-10-06T15:49:40.246Z,5.72
2022-10-06T15:52:11.688Z,4.03
2022-10-06T15:54:41.782Z,5.53
2022-10-06T15:57:16.338Z,6.38
2022-10-06T15:59:46.328Z,11.38
2022-10-06T16:02:17.145Z,7.68
2022-10-06T16:05:15.330Z,5.30
2022-10-06T16:07:44.018Z,5.15
2022-10-06T16:10:13.109Z,7.20
2022-10-06T16:12:41.705Z,5.88
2022-10-06T16:15:11.136Z,10.07
2022-10-06T16:17:39.692Z,4.78
2022-10-06T16:20:11.611Z,9.63
2022-10-06T16:22:40.165Z,5.45
2022-10-06T16:25:09.642Z,9.05
2022-10-06T16:27:39.363Z,6.03
2022-10-06T16:30:09.633Z,4.72
2022-10-06T16:32:38.113Z,3.67
2022-10-06T16:35:10.478Z,8.10
2022-10-06T16:37:44.325Z,12.32
2022-10-06T16:40:12.904Z,6.90
2022-10-06T16:42:43.322Z,4.63
2022-10-06T16:45:14.534Z,5.60
2022-10-06T16:47:43.130Z,4.72
2022-10-06T16:50:12.918Z,11.80
2022-10-06T16:52:41.422Z,7.25
2022-10-06T16:55:10.017Z,8.20
2022-10-06T16:57:38.233Z,14.27
2022-10-06T17:00:07.600Z,6.50
2022-10-06T17:02:36.476Z,4.85
2022-10-06T17:05:06.021Z,6.57
2022-10-06T17:07:36.075Z,5.10
2022-10-06T17:10:21.241Z,5.00
2022-10-06T17:12:49.726Z,8.25
2022-10-06T17:15:18.466Z,6.88
2022-10-06T17:17:46.970Z,4.22
2022-10-06T17:20:16.902Z,9.90
2022-10-06T17:22:46.565Z,4.72
2022-10-06T17:25:15.229Z,4.00
2022-10-06T17:27:43.545Z,8.05
2022-10-06T17:30:14.818Z,4.40
2022-10-06T17:32:44.168Z,8.52
2022-10-06T17:35:12.335Z,6.10
2022-10-06T17:37:40.889Z,4.72
2022-10-06T17:40:11.522Z,7.68
2022-10-06T17:42:41.474Z,6.22
2022-10-06T17:45:11.110Z,6.13
2022-10-06T17:47:39.619Z,8.88
2022-10-06T17:50:09.003Z,14.27
2022-10-06T17:52:39.032Z,8.55
2022-10-06T17:55:08.892Z,7.40
2022-10-06T17:57:38.864Z,6.03
2022-10-06T18:00:09.845Z,8.25
2022-10-06T18:02:41.631Z,6.90
2022-10-06T18:05:10.457Z,6.72
2022-10-06T18:07:39.929Z,13.02
2022-10-06T18:10:26.764Z,10.98
2022-10-06T18:12:56.296Z,4.18
2022-10-06T18:15:24.855Z,5.07
2022-10-06T18:17:53.339Z,7.60
2022-10-06T18:20:21.939Z,10.05
2022-10-06T18:22:50.323Z,10.20
2022-10-06T18:25:21.977Z,13.15
2022-10-06T18:27:53.012Z,14.25
2022-10-06T18:30:26.962Z,13.55
2022-10-06T18:36:15.765Z,15.65
2022-10-06T18:38:38.731Z,16.13
2022-10-06T18:41:08.984Z,14.45
2022-10-06T18:43:37.357Z,16.88
2022-10-06T18:46:26.297Z,11.05
2022-10-06T18:48:58.618Z,13.52
2022-10-06T18:51:31.297Z,8.90
2022-10-06T18:54:01.819Z,11.20
2022-10-06T18:56:33.979Z,11.45
2022-10-06T19:01:33.993Z,13.80
2022-10-06T19:04:05.406Z,14.75
2022-10-06T19:06:35.761Z,15.63
2022-10-06T19:09:05.472Z,16.05
2022-10-06T19:11:51.790Z,14.90
2022-10-06T19:14:22.342Z,12.23
2022-10-06T19:16:56.245Z,13.93
2022-10-06T19:19:26.425Z,11.95
2022-10-06T19:21:59.391Z,12.13
2022-10-06T19:24:30.015Z,13.02
2022-10-06T19:26:59.671Z,12.02
2022-10-06T19:29:30.121Z,10.93
2022-10-06T19:32:00.444Z,13.05
2022-10-06T19:34:28.745Z,9.50
2022-10-06T19:36:58.209Z,13.40
2022-10-06T19:39:30.591Z,13.02
2022-10-06T19:42:16.956Z,9.38
2022-10-06T19:44:45.603Z,9.80
2022-10-06T19:47:16.417Z,9.82
2022-10-06T19:49:45.250Z,10.32
2022-10-06T19:52:14.549Z,21.48
2022-10-06T19:54:42.872Z,10.38
2022-10-06T19:57:12.189Z,15.15
2022-10-06T19:59:40.815Z,15.27
2022-10-06T20:02:10.194Z,10.52
2022-10-06T20:04:40.099Z,16.17
2022-10-06T20:07:09.996Z,10.90
2022-10-06T20:09:38.319Z,10.85
2022-10-06T20:12:06.953Z,14.82
2022-10-06T20:14:36.292Z,10.40
2022-10-06T20:17:04.939Z,10.93
2022-10-06T20:19:33.317Z,10.52
2022-10-06T20:22:02.922Z,10.48
2022-10-06T20:24:31.845Z,11.63
2022-10-06T20:27:00.376Z,13.38
2022-10-06T20:29:29.559Z,10.63
2022-10-06T20:31:59.357Z,14.48
2022-10-06T20:34:31.917Z,11.82
2022-10-06T20:37:03.342Z,14.55
2022-10-06T20:39:51.728Z,12.90
2022-10-06T20:42:21.556Z,9.52
2022-10-06T20:44:50.044Z,15.38
2022-10-06T20:47:18.660Z,19.05
2022-10-06T20:49:46.830Z,16.25
2022-10-06T20:52:16.350Z,12.98
2022-10-06T20:54:44.531Z,11.43
2022-10-06T20:57:13.043Z,10.88
2022-10-06T20:59:41.602Z,8.02
2022-10-06T21:02:11.583Z,8.00
2022-10-06T21:04:43.640Z,10.80
2022-10-06T21:07:12.284Z,15.27
2022-10-06T21:09:41.936Z,14.65
2022-10-06T21:12:10.318Z,20.98
2022-10-06T21:14:42.266Z,15.98
2022-10-06T21:17:10.661Z,12.73
2022-10-06T21:19:39.110Z,11.02
2022-10-06T21:22:07.498Z,9.60
2022-10-06T21:24:35.917Z,13.95
2022-10-06T21:27:05.782Z,14.55
2022-10-06T21:29:34.116Z,13.70
2022-10-06T21:32:02.539Z,10.70
2022-10-06T21:34:30.937Z,9.55
2022-10-06T21:36:59.335Z,18.75
2022-10-06T21:39:27.715Z,7.95
2022-10-06T21:41:56.279Z,13.75
2022-10-06T21:44:25.995Z,13.00
2022-10-06T21:46:56.652Z,12.48
2022-10-06T21:49:28.338Z,13.20
2022-10-06T21:51:58.465Z,11.48
2022-10-06T21:54:26.820Z,9.90
2022-10-06T21:56:55.148Z,12.80
2022-10-06T21:59:23.539Z,17.38
2022-10-06T22:01:53.395Z,15.68
2022-10-06T22:04:21.736Z,13.90
2022-10-06T22:06:50.824Z,15.23
2022-10-06T22:09:21.602Z,15.98
2022-10-06T22:11:50.816Z,14.05
2022-10-06T22:14:20.864Z,16.25
2022-10-06T22:16:49.391Z,11.57
2022-10-06T22:19:19.339Z,12.65
2022-10-06T22:21:49.581Z,10.20
2022-10-06T22:24:20.828Z,14.05
2022-10-06T22:26:50.350Z,16.30
2022-10-06T22:29:21.017Z,17.05
2022-10-06T22:31:50.172Z,8.90
2022-10-06T22:34:21.733Z,13.45
2022-10-06T22:36:50.267Z,8.52
2022-10-06T22:39:18.764Z,11.48
2022-10-06T22:41:47.097Z,11.75
2022-10-06T22:44:15.408Z,16.67
2022-10-06T22:46:43.759Z,17.33
2022-10-06T22:49:12.425Z,14.43
2022-10-06T22:51:42.190Z,9.93
2022-10-06T22:54:19.767Z,12.40
2022-10-06T22:56:48.089Z,9.48
2022-10-06T22:59:16.440Z,12.85
2022-10-06T23:01:44.761Z,12.45
2022-10-06T23:04:13.080Z,11.95
2022-10-06T23:06:42.792Z,7.25
2022-10-06T23:09:12.950Z,9.02
2022-10-06T23:11:41.334Z,6.43
2022-10-06T23:14:17.572Z,8.60
2022-10-06T23:16:45.957Z,16.00
2022-10-06T23:19:14.517Z,10.55
2022-10-06T23:21:43.203Z,12.40
2022-10-06T23:24:11.782Z,7.88
2022-10-06T23:26:40.145Z,12.40
2022-10-06T23:29:08.429Z,11.68
2022-10-06T23:31:38.177Z,10.65
2022-10-06T23:34:06.564Z,10.52
2022-10-06T23:36:34.937Z,9.50
2022-10-06T23:39:03.231Z,8.98
2022-10-06T23:41:31.719Z,7.00
2022-10-06T23:44:00.302Z,7.70
2022-10-06T23:46:28.655Z,12.43
2022-10-06T23:48:58.583Z,9.40
2022-10-06T23:51:27.260Z,7.45
2022-10-06T23:53:55.556Z,10.75
2022-10-06T23:56:24.010Z,11.60
2022-10-06T23:58:52.635Z,10.38
